createdAt,value
2018-10-05T00:02:16.116Z,3.17
2018-10-05T00:04:44.235Z,3.60
2018-10-05T00:07:11.779Z,3.30
2018-10-05T00:09:40.304Z,2.83
2018-10-05T00:12:07.874Z,4.17
2018-10-05T00:14:36.407Z,3.13
2018-10-05T00:17:04.080Z,3.77
2018-10-05T00:19:31.573Z,3.93
2018-10-05T00:21:59.164Z,3.27
2018-10-05T00:24:26.643Z,3.90
2018-10-05T00:26:55.935Z,3.17
2018-10-05T00:29:23.516Z,3.23
2018-10-05T00:31:52.050Z,4.50
2018-10-05T00:34:19.984Z,4.70
2018-10-05T00:36:47.412Z,4.37
2018-10-05T00:39:14.984Z,3.40
2018-10-05T00:41:43.274Z,3.40
2018-10-05T00:44:11.482Z,3.13
2018-10-05T00:46:39.057Z,2.90
2018-10-05T00:49:06.755Z,3.97
2018-10-05T00:51:34.285Z,3.60
2018-10-05T00:54:01.825Z,3.87
2018-10-05T00:56:29.424Z,2.97
2018-10-05T00:58:56.998Z,3.50
2018-10-05T01:01:24.541Z,3.60
2018-10-05T01:03:52.100Z,3.20
2018-10-05T01:06:19.713Z,4.10
2018-10-05T01:08:47.272Z,3.17
2018-10-05T01:11:14.840Z,3.53
2018-10-05T01:13:42.300Z,4.10
2018-10-05T01:16:10.461Z,4.23
2018-10-05T01:18:38.072Z,4.13
2018-10-05T01:21:06.561Z,4.27
2018-10-05T01:23:34.128Z,3.80
2018-10-05T01:26:01.689Z,4.10
2018-10-05T01:28:29.245Z,3.20
2018-10-05T01:30:56.944Z,3.90
2018-10-05T01:33:25.479Z,3.77
2018-10-05T01:35:53.018Z,4.20
2018-10-05T01:38:20.444Z,3.17
2018-10-05T01:40:48.038Z,3.70
2018-10-05T01:43:16.464Z,3.47
2018-10-05T01:45:43.944Z,4.07
2018-10-05T01:48:11.502Z,3.80
2018-10-05T01:50:39.270Z,4.40
2018-10-05T01:53:06.811Z,3.20
2018-10-05T01:55:34.821Z,3.40
2018-10-05T01:58:02.422Z,3.40
2018-10-05T02:00:30.080Z,3.30
2018-10-05T02:02:57.646Z,3.60
2018-10-05T02:05:25.110Z,3.80
2018-10-05T02:07:52.694Z,3.83
2018-10-05T02:10:20.522Z,3.70
2018-10-05T02:12:47.973Z,3.37
2018-10-05T02:15:15.630Z,4.17
2018-10-05T02:17:43.134Z,3.77
2018-10-05T02:20:10.606Z,4.73
2018-10-05T02:22:38.125Z,3.83
2018-10-05T02:25:05.708Z,3.70
2018-10-05T02:27:33.329Z,3.67
2018-10-05T02:30:01.349Z,4.07
2018-10-05T02:32:28.882Z,3.20
2018-10-05T02:34:56.501Z,4.10
2018-10-05T02:37:24.181Z,4.07
2018-10-05T02:39:52.373Z,4.27
2018-10-05T02:42:19.871Z,3.00
2018-10-05T02:44:47.458Z,2.87
2018-10-05T02:47:14.993Z,2.97
2018-10-05T02:49:42.556Z,3.10
2018-10-05T02:52:10.005Z,2.60
2018-10-05T02:54:37.573Z,2.97
2018-10-05T02:57:05.234Z,2.87
2018-10-05T02:59:33.324Z,3.20
2018-10-05T03:02:14.069Z,2.80
2018-10-05T03:04:41.631Z,3.20
2018-10-05T03:07:09.200Z,3.30
2018-10-05T03:09:36.705Z,2.80
2018-10-05T03:12:04.403Z,3.83
2018-10-05T03:14:32.374Z,3.20
2018-10-05T03:16:59.964Z,3.30
2018-10-05T03:19:27.495Z,3.43
2018-10-05T03:21:55.267Z,3.27
2018-10-05T03:24:22.852Z,3.80
2018-10-05T03:26:50.561Z,3.33
2018-10-05T03:29:17.999Z,4.10
2018-10-05T03:31:45.624Z,3.87
2018-10-05T03:34:13.210Z,4.47
2018-10-05T03:36:40.801Z,3.40
2018-10-05T03:39:08.311Z,4.03
2018-10-05T03:41:36.350Z,3.73
2018-10-05T03:44:03.936Z,4.00
2018-10-05T03:46:33.128Z,4.50
2018-10-05T03:49:01.049Z,3.80
2018-10-05T03:51:28.647Z,4.27
2018-10-05T03:53:56.085Z,4.13
2018-10-05T03:56:23.625Z,3.60
2018-10-05T03:58:51.408Z,4.50
2018-10-05T04:01:19.069Z,5.00
2018-10-05T04:03:46.924Z,5.50
2018-10-05T04:06:14.605Z,5.67
2018-10-05T04:08:42.092Z,3.83
2018-10-05T04:11:09.607Z,4.60
2018-10-05T04:13:37.883Z,4.17
2018-10-05T04:16:05.437Z,4.23
2018-10-05T04:18:33.377Z,4.10
2018-10-05T04:21:01.170Z,3.83
2018-10-05T04:23:31.934Z,3.73
2018-10-05T04:26:01.130Z,4.40
2018-10-05T04:28:28.625Z,3.77
2018-10-05T04:30:56.704Z,3.93
2018-10-05T04:33:24.151Z,4.70
2018-10-05T04:35:52.221Z,3.57
2018-10-05T04:38:20.351Z,3.37
2018-10-05T04:40:47.840Z,3.87
2018-10-05T04:43:15.353Z,4.40
2018-10-05T04:45:42.852Z,9.10
2018-10-05T04:48:10.347Z,6.30
2018-10-05T04:50:37.881Z,4.63
2018-10-05T04:53:05.710Z,4.23
2018-10-05T04:55:33.206Z,4.50
2018-10-05T04:58:00.863Z,3.80
2018-10-05T05:00:31.024Z,4.47
2018-10-05T05:02:58.691Z,3.43
2018-10-05T05:05:26.195Z,3.50
2018-10-05T05:07:53.825Z,3.90
2018-10-05T05:10:21.440Z,3.80
2018-10-05T05:12:50.232Z,4.40
2018-10-05T05:15:19.936Z,4.43
2018-10-05T05:17:47.339Z,5.17
2018-10-05T05:20:15.473Z,4.23
2018-10-05T05:22:43.700Z,4.30
2018-10-05T05:25:11.990Z,4.63
2018-10-05T05:27:39.722Z,3.90
2018-10-05T05:30:09.726Z,5.23
2018-10-05T05:32:37.481Z,4.93
2018-10-05T05:35:05.842Z,5.97
2018-10-05T05:37:33.411Z,4.40
2018-10-05T05:40:01.762Z,4.33
2018-10-05T05:42:29.433Z,3.80
2018-10-05T05:44:56.904Z,4.50
2018-10-05T05:47:24.650Z,4.77
2018-10-05T05:49:52.288Z,4.80
2018-10-05T05:52:19.883Z,4.60
2018-10-05T05:54:47.400Z,4.77
2018-10-05T05:57:15.013Z,4.70
2018-10-05T05:59:43.091Z,5.37
2018-10-05T06:02:10.755Z,5.10
2018-10-05T06:04:38.346Z,5.20
2018-10-05T06:07:05.894Z,4.53
2018-10-05T06:09:33.434Z,5.20
2018-10-05T06:12:01.021Z,4.70
2018-10-05T06:15:53.466Z,4.83
2018-10-05T06:18:20.915Z,4.57
2018-10-05T06:20:48.479Z,6.40
2018-10-05T06:23:16.068Z,4.40
2018-10-05T06:25:44.277Z,5.00
2018-10-05T06:28:11.780Z,4.87
2018-10-05T06:30:39.329Z,6.03
2018-10-05T06:33:07.092Z,4.40
2018-10-05T06:35:34.614Z,5.00
2018-10-05T06:38:02.802Z,5.00
2018-10-05T06:40:30.414Z,4.90
2018-10-05T06:42:58.077Z,5.40
2018-10-05T06:45:25.677Z,4.63
2018-10-05T06:47:53.359Z,5.13
2018-10-05T06:50:20.989Z,5.60
2018-10-05T06:52:48.624Z,5.37
2018-10-05T06:55:16.166Z,5.20
2018-10-05T06:57:43.687Z,5.90
2018-10-05T07:00:11.144Z,5.47
2018-10-05T07:02:38.647Z,5.40
2018-10-05T07:05:06.116Z,5.43
2018-10-05T07:07:33.711Z,5.47
2018-10-05T07:10:01.313Z,5.53
2018-10-05T07:12:28.846Z,5.67
2018-10-05T07:14:56.411Z,5.63
2018-10-05T07:17:23.849Z,7.10
2018-10-05T07:19:51.487Z,5.90
2018-10-05T07:22:19.032Z,5.97
2018-10-05T07:24:46.616Z,8.50
2018-10-05T07:27:14.183Z,7.80
2018-10-05T07:29:41.839Z,7.70
2018-10-05T07:32:10.296Z,7.30
2018-10-05T07:34:37.865Z,7.30
2018-10-05T07:37:05.559Z,6.90
2018-10-05T07:39:33.184Z,7.83
2018-10-05T07:42:00.825Z,6.37
2018-10-05T07:44:28.341Z,6.07
2018-10-05T07:46:55.822Z,6.80
2018-10-05T07:49:23.487Z,6.00
2018-10-05T07:51:50.997Z,5.80
2018-10-05T07:54:18.502Z,6.33
2018-10-05T07:56:45.958Z,6.40
2018-10-05T07:59:13.620Z,6.83
2018-10-05T08:01:41.329Z,6.67
2018-10-05T08:04:08.746Z,6.30
2018-10-05T08:06:36.377Z,6.67
2018-10-05T08:09:04.933Z,7.27
2018-10-05T08:11:32.471Z,6.43
2018-10-05T08:14:00.152Z,7.10
2018-10-05T08:16:27.651Z,8.47
2018-10-05T08:18:55.206Z,7.20
2018-10-05T08:21:22.770Z,7.40
2018-10-05T08:23:51.168Z,6.50
2018-10-05T08:26:19.133Z,6.67
2018-10-05T08:28:46.863Z,6.50
2018-10-05T08:31:14.359Z,6.30
2018-10-05T08:33:41.885Z,7.67
2018-10-05T08:36:09.581Z,9.23
2018-10-05T08:38:37.349Z,6.90
2018-10-05T08:41:04.981Z,6.90
2018-10-05T08:43:32.652Z,6.87
2018-10-05T08:46:00.340Z,7.00
2018-10-05T08:48:27.852Z,7.67
2018-10-05T08:50:55.352Z,6.90
2018-10-05T08:53:22.835Z,7.80
2018-10-05T08:55:50.470Z,6.10
2018-10-05T08:58:18.664Z,7.50
2018-10-05T09:00:46.793Z,6.50
2018-10-05T09:03:14.257Z,7.60
2018-10-05T09:05:41.934Z,6.93
2018-10-05T09:08:09.391Z,6.70
2018-10-05T09:10:36.896Z,7.50
2018-10-05T09:13:04.479Z,6.20
2018-10-05T09:15:31.944Z,6.70
2018-10-05T09:17:59.722Z,6.17
2018-10-05T09:20:28.620Z,7.83
2018-10-05T09:22:56.137Z,7.33
2018-10-05T09:25:23.839Z,6.60
2018-10-05T09:27:51.590Z,7.00
2018-10-05T09:30:19.096Z,6.80
2018-10-05T09:32:46.940Z,7.03
2018-10-05T09:35:14.564Z,8.20
2018-10-05T09:37:42.066Z,7.33
2018-10-05T09:40:09.519Z,6.27
2018-10-05T09:42:37.081Z,6.60
2018-10-05T09:45:04.721Z,8.13
2018-10-05T09:47:32.336Z,7.83
2018-10-05T09:51:24.425Z,6.50
2018-10-05T09:53:52.000Z,6.60
2018-10-05T09:56:19.534Z,6.17
2018-10-05T09:58:47.124Z,7.63
2018-10-05T10:01:20.328Z,7.10
2018-10-05T10:03:48.438Z,7.50
2018-10-05T10:06:15.936Z,7.90
2018-10-05T10:08:43.616Z,6.63
2018-10-05T10:11:11.577Z,6.57
2018-10-05T10:13:39.766Z,6.63
2018-10-05T10:16:07.316Z,8.10
2018-10-05T10:18:34.920Z,6.87
2018-10-05T10:21:02.509Z,7.57
2018-10-05T10:23:29.959Z,7.90
2018-10-05T10:25:57.487Z,6.90
2018-10-05T10:28:24.977Z,7.90
2018-10-05T10:30:52.486Z,8.43
2018-10-05T10:33:19.965Z,7.80
2018-10-05T10:35:48.475Z,10.23
2018-10-05T10:38:15.956Z,9.70
2018-10-05T10:40:43.486Z,8.43
2018-10-05T10:43:11.047Z,7.37
2018-10-05T10:45:38.668Z,8.50
2018-10-05T10:48:06.424Z,8.00
2018-10-05T10:50:34.542Z,8.83
2018-10-05T10:53:02.039Z,8.03
2018-10-05T10:55:29.761Z,9.77
2018-10-05T10:57:57.495Z,8.23
2018-10-05T11:00:25.103Z,11.70
2018-10-05T11:02:52.657Z,9.83
2018-10-05T11:05:21.185Z,8.63
2018-10-05T11:07:48.700Z,8.20
2018-10-05T11:10:16.232Z,7.93
2018-10-05T11:12:43.890Z,9.27
2018-10-05T11:15:13.313Z,7.60
2018-10-05T11:17:40.881Z,7.60
2018-10-05T11:20:08.557Z,8.13
2018-10-05T11:22:36.053Z,8.40
2018-10-05T11:25:03.706Z,7.10
2018-10-05T11:27:31.908Z,7.90
2018-10-05T11:29:59.416Z,7.97
2018-10-05T11:32:26.948Z,7.53
2018-10-05T11:34:54.505Z,7.50
2018-10-05T11:37:22.142Z,7.40
2018-10-05T11:39:49.701Z,8.00
2018-10-05T11:42:17.293Z,8.83
2018-10-05T11:44:44.801Z,7.93
2018-10-05T11:47:16.089Z,7.37
2018-10-05T11:49:43.651Z,7.63
2018-10-05T11:52:11.149Z,8.47
2018-10-05T11:54:38.793Z,9.20
2018-10-05T11:57:06.323Z,8.90
2018-10-05T11:59:33.843Z,8.50
2018-10-05T12:02:01.364Z,7.90
2018-10-05T12:04:28.962Z,6.40
2018-10-05T12:06:56.460Z,6.70
2018-10-05T12:09:24.080Z,6.77
2018-10-05T12:11:51.813Z,6.70
2018-10-05T12:14:19.436Z,6.37
2018-10-05T12:16:47.004Z,8.30
2018-10-05T12:19:14.634Z,6.83
2018-10-05T12:21:43.019Z,6.23
2018-10-05T12:24:10.659Z,6.73
2018-10-05T12:26:38.235Z,8.00
2018-10-05T12:29:05.810Z,5.80
2018-10-05T12:31:33.590Z,7.57
2018-10-05T12:34:02.572Z,5.87
2018-10-05T12:36:30.531Z,7.33
2018-10-05T12:38:58.095Z,6.00
2018-10-05T12:41:25.645Z,7.13
2018-10-05T12:43:54.380Z,7.27
2018-10-05T12:46:22.708Z,7.03
2018-10-05T12:48:52.513Z,5.60
2018-10-05T12:51:22.221Z,5.97
2018-10-05T12:53:50.072Z,6.67
2018-10-05T12:56:17.888Z,5.90
2018-10-05T12:58:46.114Z,6.80
2018-10-05T13:01:13.761Z,6.13
2018-10-05T13:03:42.040Z,6.53
2018-10-05T13:06:10.844Z,7.30
2018-10-05T13:08:38.405Z,7.23
2018-10-05T13:11:06.411Z,5.97
2018-10-05T13:13:34.061Z,7.50
2018-10-05T13:16:02.861Z,5.67
2018-10-05T13:18:31.716Z,5.53
2018-10-05T13:21:01.271Z,6.17
2018-10-05T13:23:28.757Z,6.73
2018-10-05T13:25:56.333Z,6.10
2018-10-05T13:28:24.357Z,7.20
2018-10-05T13:30:51.901Z,10.17
2018-10-05T13:33:19.972Z,7.70
2018-10-05T13:35:48.144Z,6.70
2018-10-05T13:38:15.675Z,4.80
2018-10-05T13:40:43.234Z,5.87
2018-10-05T13:43:10.996Z,5.30
2018-10-05T13:45:38.840Z,5.93
2018-10-05T13:48:06.414Z,7.17
2018-10-05T13:50:33.981Z,5.87
2018-10-05T13:53:01.850Z,4.70
2018-10-05T13:55:31.102Z,5.70
2018-10-05T13:57:59.281Z,6.30
2018-10-05T14:00:26.902Z,6.73
2018-10-05T14:02:54.629Z,5.77
2018-10-05T14:05:22.050Z,7.20
2018-10-05T14:07:49.613Z,5.80
2018-10-05T14:10:17.784Z,6.50
2018-10-05T14:12:45.957Z,5.90
2018-10-05T14:15:14.613Z,5.50
2018-10-05T14:17:42.101Z,5.50
2018-10-05T14:20:09.711Z,5.00
2018-10-05T14:22:37.387Z,5.47
2018-10-05T14:25:05.460Z,5.47
2018-10-05T14:27:33.619Z,5.60
2018-10-05T14:30:01.148Z,5.60
2018-10-05T14:32:28.884Z,5.73
2018-10-05T14:34:57.932Z,6.10
2018-10-05T14:37:25.464Z,5.77
2018-10-05T14:39:53.546Z,4.30
2018-10-05T14:42:21.665Z,4.13
2018-10-05T14:44:49.315Z,4.60
2018-10-05T14:47:16.821Z,3.90
2018-10-05T14:49:45.281Z,4.97
2018-10-05T14:52:15.020Z,4.90
2018-10-05T14:54:42.583Z,4.80
2018-10-05T14:57:10.227Z,4.60
2018-10-05T14:59:37.869Z,4.67
2018-10-05T15:02:05.925Z,4.93
2018-10-05T15:04:33.600Z,4.30
2018-10-05T15:07:01.125Z,5.00
2018-10-05T15:09:28.621Z,4.57
2018-10-05T15:11:56.852Z,5.93
2018-10-05T15:14:24.389Z,5.93
2018-10-05T15:16:52.063Z,5.73
2018-10-05T15:19:22.949Z,6.17
2018-10-05T15:21:50.527Z,5.20
2018-10-05T15:24:18.001Z,5.00
2018-10-05T15:26:45.562Z,4.90
2018-10-05T15:29:13.044Z,5.83
2018-10-05T15:31:40.670Z,4.83
2018-10-05T15:34:08.209Z,5.40
2018-10-05T15:36:35.928Z,4.90
2018-10-05T15:39:04.257Z,5.23
2018-10-05T15:41:31.754Z,5.13
2018-10-05T15:43:59.431Z,5.60
2018-10-05T15:47:10.625Z,5.37
2018-10-05T15:49:39.067Z,4.80
2018-10-05T15:52:07.081Z,5.37
2018-10-05T15:54:34.667Z,5.40
2018-10-05T15:57:02.269Z,4.70
2018-10-05T15:59:30.551Z,5.00
2018-10-05T16:01:58.278Z,5.57
2018-10-05T16:04:26.284Z,5.00
2018-10-05T16:06:54.109Z,5.77
2018-10-05T16:09:21.630Z,5.00
2018-10-05T16:11:49.312Z,5.20
2018-10-05T16:14:16.855Z,6.77
2018-10-05T16:16:44.463Z,7.07
2018-10-05T16:19:12.016Z,9.03
2018-10-05T16:21:39.513Z,9.70
2018-10-05T16:24:12.432Z,7.90
2018-10-05T16:26:40.197Z,13.73
2018-10-05T16:29:07.821Z,13.20
2018-10-05T16:31:35.364Z,9.23
2018-10-05T16:34:02.851Z,7.60
2018-10-05T16:36:31.079Z,6.20
2018-10-05T16:38:58.630Z,5.60
2018-10-05T16:41:26.068Z,6.40
2018-10-05T16:43:53.601Z,6.60
2018-10-05T16:46:21.115Z,9.70
2018-10-05T16:48:48.732Z,6.67
2018-10-05T16:51:16.447Z,7.20
2018-10-05T16:53:44.962Z,7.17
2018-10-05T16:56:13.575Z,7.10
2018-10-05T16:58:41.650Z,7.50
2018-10-05T17:01:09.553Z,8.70
2018-10-05T17:03:37.302Z,7.80
2018-10-05T17:06:05.028Z,6.63
2018-10-05T17:08:35.620Z,8.70
2018-10-05T17:11:03.426Z,7.77
2018-10-05T17:13:31.044Z,6.70
2018-10-05T17:15:59.541Z,6.60
2018-10-05T17:18:27.069Z,6.17
2018-10-05T17:20:54.730Z,5.60
2018-10-05T17:23:22.467Z,6.13
2018-10-05T17:25:50.011Z,5.90
2018-10-05T17:28:17.732Z,6.40
2018-10-05T17:30:45.234Z,5.67
2018-10-05T17:33:14.370Z,6.53
2018-10-05T17:35:42.033Z,5.73
2018-10-05T17:38:10.376Z,6.23
2018-10-05T17:40:38.231Z,6.47
2018-10-05T17:43:08.825Z,7.07
2018-10-05T17:45:36.382Z,7.10
2018-10-05T17:48:05.136Z,6.80
2018-10-05T17:50:33.428Z,6.93
2018-10-05T17:53:01.482Z,7.40
2018-10-05T17:55:29.763Z,6.70
2018-10-05T17:57:57.551Z,7.03
2018-10-05T18:00:25.580Z,6.10
2018-10-05T18:02:53.675Z,7.00
2018-10-05T18:05:22.549Z,6.27
2018-10-05T18:07:50.321Z,5.97
2018-10-05T18:10:18.556Z,6.03
2018-10-05T18:12:46.163Z,6.53
2018-10-05T18:15:16.102Z,6.20
2018-10-05T18:17:48.473Z,6.20
2018-10-05T18:20:18.088Z,6.37
2018-10-05T18:22:45.703Z,5.40
2018-10-05T18:25:14.228Z,7.27
2018-10-05T18:27:42.630Z,6.30
2018-10-05T18:30:10.904Z,6.80
2018-10-05T18:32:39.980Z,6.37
2018-10-05T18:35:08.672Z,5.80
2018-10-05T18:37:36.407Z,6.50
2018-10-05T18:40:04.320Z,6.13
2018-10-05T18:42:31.753Z,6.17
2018-10-05T18:44:59.395Z,6.57
2018-10-05T18:47:26.965Z,7.27
2018-10-05T18:49:54.697Z,7.10
2018-10-05T18:52:22.287Z,6.27
2018-10-05T18:54:49.939Z,6.60
2018-10-05T18:57:18.900Z,5.80
2018-10-05T18:59:46.560Z,6.03
2018-10-05T19:02:15.689Z,5.03
2018-10-05T19:04:45.485Z,6.00
2018-10-05T19:07:13.001Z,6.50
2018-10-05T19:09:41.525Z,6.50
2018-10-05T19:12:09.616Z,6.40
2018-10-05T19:14:38.841Z,6.97
2018-10-05T19:17:07.428Z,6.40
2018-10-05T19:19:36.614Z,6.57
2018-10-05T19:22:04.332Z,6.53
2018-10-05T19:24:31.878Z,7.33
2018-10-05T19:26:59.756Z,6.20
2018-10-05T19:29:27.639Z,6.50
2018-10-05T19:31:55.211Z,6.03
2018-10-05T19:34:22.787Z,5.97
2018-10-05T19:36:50.362Z,5.60
2018-10-05T19:39:17.955Z,5.90
2018-10-05T19:41:46.078Z,6.17
2018-10-05T19:44:13.669Z,7.80
2018-10-05T19:46:41.367Z,6.87
2018-10-05T19:49:09.141Z,6.53
2018-10-05T19:51:38.701Z,6.37
2018-10-05T19:54:06.940Z,6.37
2018-10-05T19:56:34.455Z,6.90
2018-10-05T19:59:02.026Z,7.47
2018-10-05T20:01:30.351Z,6.40
2018-10-05T20:03:57.883Z,7.00
2018-10-05T20:06:25.552Z,7.70
2018-10-05T20:08:53.008Z,8.10
2018-10-05T20:11:21.089Z,10.57
2018-10-05T20:13:48.715Z,10.10
2018-10-05T20:16:16.415Z,8.17
2018-10-05T20:18:43.990Z,8.87
2018-10-05T20:21:11.543Z,8.30
2018-10-05T20:23:39.454Z,8.03
2018-10-05T20:26:07.011Z,9.03
2018-10-05T20:28:34.473Z,8.13
2018-10-05T20:31:02.785Z,7.40
2018-10-05T20:33:31.010Z,8.23
2018-10-05T20:35:58.777Z,7.47
2018-10-05T20:38:26.401Z,7.90
2018-10-05T20:40:53.983Z,7.67
2018-10-05T20:43:21.664Z,8.07
2018-10-05T20:45:50.392Z,7.30
2018-10-05T20:48:17.970Z,7.73
2018-10-05T20:50:45.612Z,6.70
2018-10-05T20:53:13.759Z,7.73
2018-10-05T20:55:43.399Z,6.70
2018-10-05T20:58:11.608Z,7.37
2018-10-05T21:00:39.599Z,8.50
2018-10-05T21:03:07.288Z,6.67
2018-10-05T21:05:35.788Z,7.73
2018-10-05T21:08:03.550Z,7.67
2018-10-05T21:10:31.283Z,6.33
2018-10-05T21:12:59.505Z,7.43
2018-10-05T21:15:26.898Z,6.83
2018-10-05T21:17:54.798Z,7.70
2018-10-05T21:20:22.818Z,8.03
2018-10-05T21:22:50.735Z,8.50
2018-10-05T21:25:18.459Z,7.43
2018-10-05T21:27:46.502Z,7.40
2018-10-05T21:30:14.792Z,6.90
2018-10-05T21:32:42.393Z,7.60
2018-10-05T21:35:10.644Z,6.30
2018-10-05T21:37:38.628Z,7.37
2018-10-05T21:40:06.211Z,6.20
2018-10-05T21:42:34.144Z,7.20
2018-10-05T21:45:01.985Z,6.53
2018-10-05T21:47:30.444Z,6.47
2018-10-05T21:49:59.001Z,6.60
2018-10-05T21:52:26.440Z,7.10
2018-10-05T21:54:54.513Z,7.37
2018-10-05T21:57:23.122Z,7.10
2018-10-05T21:59:50.584Z,6.70
2018-10-05T22:02:18.651Z,6.13
2018-10-05T22:04:46.266Z,6.60
2018-10-05T22:07:13.992Z,6.47
2018-10-05T22:09:41.834Z,6.50
2018-10-05T22:12:09.899Z,5.83
2018-10-05T22:14:38.238Z,6.13
2018-10-05T22:17:07.944Z,7.87
2018-10-05T22:19:35.632Z,6.40
2018-10-05T22:22:03.285Z,5.80
2018-10-05T22:24:30.794Z,6.83
2018-10-05T22:29:43.176Z,6.40
2018-10-05T22:32:12.330Z,9.03
2018-10-05T22:34:39.801Z,7.33
2018-10-05T22:37:07.847Z,7.40
2018-10-05T22:39:35.233Z,6.07
2018-10-05T22:42:02.871Z,7.47
2018-10-05T22:44:30.568Z,6.73
2018-10-05T22:46:59.205Z,6.20
2018-10-05T22:49:26.897Z,7.80
2018-10-05T22:51:55.392Z,6.43
2018-10-05T22:54:22.902Z,6.53
2018-10-05T22:57:00.581Z,6.50
2018-10-05T22:59:28.384Z,7.33
2018-10-05T23:01:56.069Z,7.17
2018-10-05T23:04:23.741Z,7.00
2018-10-05T23:06:51.861Z,6.47
2018-10-05T23:09:19.522Z,6.07
2018-10-05T23:11:47.093Z,6.30
2018-10-05T23:14:14.885Z,6.63
2018-10-05T23:16:43.280Z,6.87
2018-10-05T23:19:10.760Z,7.40
2018-10-05T23:21:38.252Z,6.50
2018-10-05T23:24:06.040Z,6.50
2018-10-05T23:26:33.616Z,7.17
2018-10-05T23:29:01.250Z,7.23
2018-10-05T23:31:30.128Z,7.50
2018-10-05T23:33:57.679Z,6.47
2018-10-05T23:36:25.805Z,6.10
2018-10-05T23:38:53.341Z,6.87
2018-10-05T23:41:20.930Z,6.50
2018-10-05T23:43:49.488Z,6.33
2018-10-05T23:46:17.053Z,7.37
2018-10-05T23:48:44.680Z,7.00
2018-10-05T23:51:12.179Z,7.40
2018-10-05T23:53:39.739Z,6.80
2018-10-05T23:56:08.283Z,7.00
2018-10-05T23:58:35.911Z,7.13
